Time;durP1;ratioP1;P1;durP2;ratioP2;P2;SDS_P1;SDS_P2;PMS_P1;PMS_P2;Temp;Humidity;BMP_temperature;BMP_pressure;BME280_temperature;BME280_humidity;BME280_pressure;Samples;Min_cycle;Max_cycle;Signal;HPM_P1;HPM_P2
2022/12/06 00:00:09;;;;;;;6.33;5.40;;;2.00;99.90;;;;;;5071997;28;20206;-49
2022/12/06 00:02:35;;;;;;;5.63;5.13;;;1.90;99.90;;;;;;5069699;28;20207;-48
2022/12/06 00:05:03;;;;;;;6.27;5.67;;;1.80;99.90;;;;;;5069342;28;20207;-49
2022/12/06 00:07:31;;;;;;;10.20;7.23;;;1.80;99.90;;;;;;5071562;28;20700;-50
2022/12/06 00:10:00;;;;;;;7.87;6.77;;;1.80;99.90;;;;;;5071851;28;20199;-49
2022/12/06 00:12:27;;;;;;;6.73;6.13;;;1.80;99.90;;;;;;5071019;28;20260;-50
2022/12/06 00:14:54;;;;;;;7.53;6.83;;;1.70;99.90;;;;;;5070772;28;20215;-49
2022/12/06 00:17:21;;;;;;;7.43;6.63;;;1.70;99.90;;;;;;5071630;28;20276;-49
2022/12/06 00:19:48;;;;;;;7.10;6.50;;;1.80;99.90;;;;;;5070769;28;20226;-48
2022/12/06 00:22:15;;;;;;;7.43;6.03;;;1.80;99.90;;;;;;5072120;28;20259;-50
2022/12/06 00:24:43;;;;;;;5.63;5.13;;;1.80;99.90;;;;;;5074503;28;20197;-49
2022/12/06 00:27:11;;;;;;;6.03;5.53;;;1.70;99.90;;;;;;5066281;28;20291;-49
2022/12/06 00:29:42;;;;;;;6.87;5.20;;;1.60;99.90;;;;;;5075298;28;20198;-50
2022/12/06 00:32:09;;;;;;;5.23;4.83;;;1.60;99.90;;;;;;5065817;28;20289;-49
2022/12/06 00:34:38;;;;;;;8.10;5.80;;;1.60;99.90;;;;;;5074623;28;20207;-49
2022/12/06 00:37:05;;;;;;;8.10;5.60;;;1.50;99.90;;;;;;5069682;28;20222;-48
2022/12/06 00:39:32;;;;;;;5.93;5.10;;;1.50;99.90;;;;;;5072631;28;20336;-50
2022/12/06 00:41:59;;;;;;;6.10;5.13;;;1.50;99.90;;;;;;5073620;28;20194;-49
2022/12/06 00:44:27;;;;;;;5.33;4.37;;;1.40;99.90;;;;;;5066126;28;20202;-49
2022/12/06 00:46:54;;;;;;;5.87;4.83;;;1.40;99.90;;;;;;5074885;28;20251;-49
2022/12/06 00:49:21;;;;;;;7.93;6.50;;;1.30;99.90;;;;;;5072685;28;20212;-49
2022/12/06 00:51:48;;;;;;;4.63;4.27;;;1.30;99.90;;;;;;5071863;28;20288;-48
2022/12/06 00:54:15;;;;;;;6.07;5.47;;;1.20;99.90;;;;;;5071890;28;20203;-49
2022/12/06 00:56:42;;;;;;;5.50;5.00;;;1.20;99.90;;;;;;5073773;28;20647;-50
2022/12/06 00:59:11;;;;;;;5.47;4.80;;;1.20;99.90;;;;;;5074744;28;20223;-49
2022/12/06 01:01:39;;;;;;;8.63;6.50;;;1.10;99.90;;;;;;5074509;28;20680;-48
2022/12/06 01:04:08;;;;;;;6.83;5.30;;;1.10;99.90;;;;;;5073001;28;20243;-49
2022/12/06 01:06:37;;;;;;;7.33;5.93;;;1.10;99.90;;;;;;5071655;28;20862;-49
2022/12/06 01:09:06;;;;;;;6.17;5.57;;;1.10;99.90;;;;;;5066095;28;20251;-49
2022/12/06 01:11:33;;;;;;;9.63;6.83;;;1.00;99.90;;;;;;5074472;28;20206;-50
2022/12/06 01:14:00;;;;;;;6.63;6.03;;;1.10;99.90;;;;;;5073539;28;20203;-49
2022/12/06 01:16:29;;;;;;;9.27;6.87;;;1.20;99.90;;;;;;5071353;28;20733;-48
2022/12/06 01:19:01;;;;;;;8.13;6.77;;;1.10;99.90;;;;;;5071213;28;20280;-49
2022/12/06 01:21:29;;;;;;;9.90;7.27;;;1.10;99.90;;;;;;5074571;28;20236;-50
2022/12/06 01:23:57;;;;;;;10.97;7.70;;;0.90;99.90;;;;;;5073850;28;20207;-49
2022/12/06 01:26:27;;;;;;;10.90;7.77;;;0.90;99.90;;;;;;5072832;28;20733;-47
2022/12/06 01:28:54;;;;;;;12.93;7.80;;;0.90;99.90;;;;;;5061795;28;20218;-49
2022/12/06 01:31:21;;;;;;;10.53;7.00;;;0.90;99.90;;;;;;5073387;28;20232;-49
2022/12/06 01:33:49;;;;;;;8.57;7.17;;;0.90;99.90;;;;;;5070858;28;20672;-48
2022/12/06 01:36:18;;;;;;;11.87;7.67;;;0.90;99.90;;;;;;5073845;28;20200;-49
2022/12/06 01:38:49;;;;;;;10.33;7.43;;;0.90;99.90;;;;;;5073390;28;20687;-49
2022/12/06 01:41:16;;;;;;;9.70;7.23;;;0.80;99.90;;;;;;5069213;28;20210;-49
2022/12/06 01:43:44;;;;;;;10.37;6.73;;;0.80;99.90;;;;;;5071726;28;20214;-50
2022/12/06 01:46:20;;;;;;;11.30;7.33;;;0.80;99.90;;;;;;5073511;28;20199;-49
2022/12/06 01:48:48;;;;;;;9.07;6.30;;;0.70;99.90;;;;;;5073550;28;20617;-48
2022/12/06 01:51:17;;;;;;;8.30;5.63;;;0.70;99.90;;;;;;5073580;28;20256;-49
2022/12/06 01:53:48;;;;;;;12.17;6.80;;;0.60;99.90;;;;;;5068792;28;20198;-49
2022/12/06 01:56:15;;;;;;;9.70;6.43;;;0.60;99.90;;;;;;5074038;28;20191;-48
2022/12/06 01:58:44;;;;;;;8.53;6.77;;;0.50;99.90;;;;;;5073255;28;20286;-50
2022/12/06 02:01:11;;;;;;;7.93;5.77;;;0.50;99.90;;;;;;5073314;28;20357;-49
2022/12/06 02:03:38;;;;;;;7.47;6.33;;;0.50;99.90;;;;;;5070088;28;20876;-49
2022/12/06 02:06:07;;;;;;;8.97;7.03;;;0.50;99.90;;;;;;5070863;28;20206;-49
2022/12/06 02:08:37;;;;;;;7.30;6.30;;;0.50;99.90;;;;;;5073132;28;20211;-49
2022/12/06 02:11:05;;;;;;;9.03;6.40;;;0.50;99.90;;;;;;5071030;28;20196;-49
2022/12/06 02:13:34;;;;;;;11.67;8.03;;;0.50;99.90;;;;;;5072650;28;20690;-49
2022/12/06 02:16:13;;;;;;;10.63;7.23;;;0.60;99.90;;;;;;5067049;28;20199;-48
2022/12/06 02:18:46;;;;;;;9.07;6.87;;;0.60;99.90;;;;;;5066998;28;20223;-51
2022/12/06 02:21:20;;;;;;;11.27;7.77;;;0.50;99.90;;;;;;5073171;28;20202;-49
2022/12/06 02:24:17;;;;;;;9.33;7.10;;;0.60;99.90;;;;;;5072268;28;20736;-54
2022/12/06 02:26:47;;;;;;;8.93;6.80;;;0.60;99.90;;;;;;5072679;28;20260;-49
2022/12/06 02:29:30;;;;;;;11.87;7.90;;;0.50;99.90;;;;;;5069057;28;20749;-50
2022/12/06 02:32:03;;;;;;;12.40;7.70;;;0.40;99.90;;;;;;5071899;28;20216;-50
2022/12/06 02:34:41;;;;;;;8.00;6.97;;;0.40;99.90;;;;;;5070205;28;20206;-51
2022/12/06 02:37:12;;;;;;;12.77;8.37;;;0.30;99.90;;;;;;5063058;28;20233;-50
2022/12/06 02:39:48;;;;;;;12.03;9.03;;;0.40;99.90;;;;;;5067987;28;20222;-48
2022/12/06 02:42:18;;;;;;;10.33;7.47;;;0.30;99.90;;;;;;5063240;28;20251;-50
2022/12/06 02:44:49;;;;;;;10.83;7.90;;;0.30;99.90;;;;;;5069939;28;20818;-49
2022/12/06 02:47:21;;;;;;;11.00;8.43;;;0.20;99.90;;;;;;5061496;28;20232;-48
2022/12/06 02:49:53;;;;;;;12.50;8.60;;;0.20;99.90;;;;;;5072437;28;20216;-50
2022/12/06 02:52:23;;;;;;;8.77;7.83;;;0.10;99.90;;;;;;5072319;28;20240;-49
2022/12/06 02:54:51;;;;;;;9.80;7.77;;;0.10;99.90;;;;;;5065541;28;20225;-48
2022/12/06 02:57:23;;;;;;;7.67;6.87;;;0.10;99.90;;;;;;5072422;28;20218;-49
2022/12/06 02:59:54;;;;;;;9.73;8.10;;;0.10;99.90;;;;;;5072311;28;20221;-50
2022/12/06 03:02:24;;;;;;;10.13;7.47;;;0.10;99.90;;;;;;5072590;28;20258;-49
2022/12/06 03:05:05;;;;;;;9.97;7.60;;;0.10;99.90;;;;;;5067553;28;20253;-49
2022/12/06 03:07:37;;;;;;;7.37;6.00;;;0.10;99.90;;;;;;5065854;28;20221;-48
2022/12/06 03:10:25;;;;;;;7.97;6.17;;;0.10;99.90;;;;;;5071667;28;20611;-49
2022/12/06 03:13:01;;;;;;;8.23;5.63;;;0.00;99.90;;;;;;5072686;28;20203;-51
2022/12/06 03:15:37;;;;;;;10.37;7.13;;;0.00;99.90;;;;;;5062892;28;20741;-49
2022/12/06 03:18:16;;;;;;;8.50;6.57;;;0.00;99.90;;;;;;5064342;28;20279;-50
2022/12/06 03:20:47;;;;;;;6.00;5.40;;;-0.10;99.90;;;;;;5066403;28;20233;-49
2022/12/06 03:23:17;;;;;;;7.33;6.20;;;-0.10;99.90;;;;;;5071782;28;20197;-48
2022/12/06 03:25:46;;;;;;;7.27;6.57;;;-0.10;99.90;;;;;;5064298;28;20268;-49
2022/12/06 03:28:15;;;;;;;8.13;6.87;;;-0.10;99.90;;;;;;5072108;28;20235;-49
2022/12/06 03:30:47;;;;;;;8.47;6.80;;;-0.10;99.90;;;;;;5072092;28;20203;-50
2022/12/06 03:33:17;;;;;;;7.30;6.60;;;-0.10;99.90;;;;;;5067732;28;20275;-47
2022/12/06 03:35:47;;;;;;;10.40;6.43;;;-0.10;99.90;;;;;;5072035;28;20666;-50
2022/12/06 03:38:27;;;;;;;6.57;5.97;;;-0.20;99.90;;;;;;5068724;28;20226;-49
2022/12/06 03:40:57;;;;;;;6.97;6.07;;;-0.10;99.90;;;;;;5071090;28;20205;-49
2022/12/06 03:43:24;;;;;;;7.00;6.37;;;-0.10;99.90;;;;;;5071180;28;20201;-50
2022/12/06 03:45:55;;;;;;;7.53;6.83;;;-0.10;99.90;;;;;;5067188;28;20195;-49
2022/12/06 03:48:29;;;;;;;8.67;6.80;;;-0.10;99.90;;;;;;5068062;28;20214;-50
2022/12/06 03:51:01;;;;;;;9.67;7.10;;;-0.10;99.90;;;;;;5063359;28;20207;-49
2022/12/06 03:53:28;;;;;;;7.13;6.43;;;-0.10;99.90;;;;;;5070165;28;20204;-49
2022/12/06 03:55:55;;;;;;;7.73;6.63;;;-0.10;99.90;;;;;;5072242;28;20245;-49
2022/12/06 03:58:22;;;;;;;7.93;6.37;;;-0.10;99.90;;;;;;5074630;28;20242;-50
2022/12/06 04:00:49;;;;;;;7.50;6.33;;;-0.10;99.90;;;;;;5072107;28;20693;-49
2022/12/06 04:03:16;;;;;;;7.00;6.40;;;-0.20;99.90;;;;;;5075224;28;20622;-50
2022/12/06 04:05:44;;;;;;;8.03;6.60;;;-0.20;99.90;;;;;;5075689;28;20206;-51
2022/12/06 04:08:11;;;;;;;7.53;6.47;;;-0.20;99.90;;;;;;5065916;28;20227;-49
2022/12/06 04:10:38;;;;;;;7.77;6.93;;;-0.20;99.90;;;;;;5073921;28;20270;-49
2022/12/06 04:13:05;;;;;;;8.63;7.00;;;-0.10;99.90;;;;;;5071348;28;20282;-49
2022/12/06 04:15:34;;;;;;;8.43;6.37;;;-0.10;99.90;;;;;;5075294;28;20288;-48
2022/12/06 04:18:12;;;;;;;7.73;7.03;;;-0.20;99.90;;;;;;5069329;28;20226;-49
2022/12/06 04:23:35;;;;;;;9.53;7.17;;;-0.20;99.90;;;;;;5072653;28;20607;-49
2022/12/06 04:26:03;;;;;;;6.63;5.97;;;-0.30;99.90;;;;;;5067205;28;20226;-49
2022/12/06 04:39:30;;;;;;;7.47;6.10;;;-0.30;99.90;;;;;;5074654;28;20228;-49
2022/12/06 04:44:41;;;;;;;7.40;6.60;;;-0.10;99.90;;;;;;5064238;28;20753;-49
2022/12/06 04:47:09;;;;;;;6.77;5.90;;;-0.20;99.90;;;;;;5066988;28;20780;-48
2022/12/06 04:49:39;;;;;;;7.43;6.30;;;-0.20;99.90;;;;;;5069712;28;20206;-49
2022/12/06 04:52:08;;;;;;;7.87;6.97;;;-0.30;99.90;;;;;;5068828;28;20246;-50
2022/12/06 04:54:39;;;;;;;8.73;7.37;;;-0.40;99.90;;;;;;5062356;28;20199;-49
2022/12/06 04:57:09;;;;;;;8.10;7.17;;;-0.40;99.90;;;;;;5062677;28;20227;-49
2022/12/06 04:59:41;;;;;;;9.07;6.80;;;-0.40;99.90;;;;;;5071860;28;20315;-49
2022/12/06 05:02:12;;;;;;;6.33;5.73;;;-0.40;99.90;;;;;;5068151;28;20211;-49
2022/12/06 05:04:43;;;;;;;7.27;6.10;;;-0.50;99.90;;;;;;5071404;28;20201;-50
2022/12/06 05:07:11;;;;;;;8.87;8.00;;;-0.50;99.90;;;;;;5073001;28;20226;-49
2022/12/06 05:09:40;;;;;;;8.67;7.73;;;-0.50;99.90;;;;;;5072444;28;20285;-49
2022/12/06 05:12:07;;;;;;;7.27;6.57;;;-0.50;99.90;;;;;;5073805;28;20204;-48
2022/12/06 05:14:38;;;;;;;7.97;7.00;;;-0.60;99.90;;;;;;5073573;28;20201;-49
2022/12/06 05:17:05;;;;;;;14.03;7.97;;;-0.60;99.90;;;;;;5073784;28;20652;-49
2022/12/06 05:19:32;;;;;;;10.50;7.57;;;-0.60;99.90;;;;;;5072833;28;20229;-50
2022/12/06 05:21:59;;;;;;;9.73;7.20;;;-0.60;99.90;;;;;;5078215;28;20752;-50
2022/12/06 05:24:27;;;;;;;7.97;7.17;;;-0.60;99.90;;;;;;5072846;28;20225;-49
2022/12/06 05:26:54;;;;;;;11.10;8.43;;;-0.50;99.90;;;;;;5073135;28;20237;-49
2022/12/06 05:29:21;;;;;;;8.30;6.37;;;-0.40;99.90;;;;;;5068296;28;20208;-49
2022/12/06 05:31:48;;;;;;;8.53;6.37;;;-0.30;99.90;;;;;;5075393;28;20261;-49
2022/12/06 05:34:15;;;;;;;6.73;5.13;;;-0.20;99.90;;;;;;5070875;28;20212;-50
2022/12/06 05:36:44;;;;;;;5.50;5.03;;;-0.10;99.90;;;;;;5072924;28;20240;-49
2022/12/06 05:39:11;;;;;;;7.30;5.37;;;-0.10;99.90;;;;;;5073227;28;20234;-49
2022/12/06 05:41:39;;;;;;;5.80;4.17;;;-0.20;99.90;;;;;;5073019;28;20739;-49
2022/12/06 05:44:06;;;;;;;6.60;4.33;;;-0.10;99.90;;;;;;5072608;28;20684;-50
2022/12/06 05:46:33;;;;;;;5.00;4.13;;;-0.10;99.90;;;;;;5063130;28;20203;-48
2022/12/06 05:49:00;;;;;;;4.70;4.30;;;0.00;99.90;;;;;;5067592;28;21011;-48
2022/12/06 05:51:27;;;;;;;4.10;3.63;;;0.00;99.90;;;;;;5069298;28;20271;-49
2022/12/06 05:53:54;;;;;;;4.60;4.17;;;0.10;99.90;;;;;;5068755;28;20255;-48
2022/12/06 05:56:21;;;;;;;5.87;4.23;;;0.10;99.90;;;;;;5072959;28;20738;-49
2022/12/06 05:58:50;;;;;;;3.43;3.23;;;0.10;99.90;;;;;;5072928;28;20225;-48
2022/12/06 06:01:17;;;;;;;6.23;3.63;;;0.20;99.90;;;;;;5072933;28;20226;-49
2022/12/06 06:03:44;;;;;;;3.53;3.23;;;0.20;99.90;;;;;;5069371;28;20609;-49
2022/12/06 06:06:10;;;;;;;4.50;4.10;;;0.20;99.90;;;;;;5071002;28;20204;-48
2022/12/06 06:08:37;;;;;;;4.20;3.80;;;0.20;99.90;;;;;;5072361;28;20227;-49
2022/12/06 06:11:05;;;;;;;5.13;4.63;;;0.20;99.90;;;;;;5072630;28;20199;-48
2022/12/06 06:13:32;;;;;;;4.60;3.47;;;0.20;99.90;;;;;;5065011;28;20209;-48
2022/12/06 06:16:00;;;;;;;7.07;3.40;;;0.20;99.90;;;;;;5071728;28;20256;-48
2022/12/06 06:18:27;;;;;;;3.00;2.77;;;0.20;99.90;;;;;;5072231;28;20362;-48
2022/12/06 06:20:58;;;;;;;6.57;3.77;;;0.30;99.90;;;;;;5066741;28;20578;-49
2022/12/06 06:23:26;;;;;;;5.17;4.13;;;0.30;99.90;;;;;;5063760;28;20206;-49
2022/12/06 06:25:54;;;;;;;3.27;3.07;;;0.30;99.90;;;;;;5069293;28;20266;-49
2022/12/06 06:28:21;;;;;;;3.43;3.13;;;0.30;99.90;;;;;;5071520;28;20312;-49
2022/12/06 06:30:48;;;;;;;2.47;2.17;;;0.30;99.90;;;;;;5072129;28;20190;-48
2022/12/06 06:33:17;;;;;;;3.83;3.30;;;0.30;99.90;;;;;;5068161;28;20207;-50
2022/12/06 06:35:44;;;;;;;4.10;3.70;;;0.40;99.90;;;;;;5067534;28;20198;-50
2022/12/06 06:38:11;;;;;;;3.73;2.87;;;0.40;99.90;;;;;;5065118;28;20227;-48
2022/12/06 06:40:38;;;;;;;2.80;2.53;;;0.50;99.90;;;;;;5071561;28;20225;-48
2022/12/06 06:43:18;;;;;;;3.70;3.50;;;0.40;99.90;;;;;;5071403;28;20215;-48
2022/12/06 06:45:46;;;;;;;3.40;2.57;;;0.50;99.90;;;;;;5072065;28;20206;-49
2022/12/06 06:48:13;;;;;;;4.47;2.50;;;0.50;99.90;;;;;;5068696;28;20224;-47
2022/12/06 06:50:41;;;;;;;2.50;2.13;;;0.50;99.90;;;;;;5070666;28;20198;-49
2022/12/06 06:53:09;;;;;;;7.20;5.97;;;0.60;99.90;;;;;;5071275;28;20243;-49
2022/12/06 06:55:36;;;;;;;9.27;7.43;;;0.70;99.90;;;;;;5070894;28;20304;-49
2022/12/06 06:58:04;;;;;;;7.57;6.10;;;0.70;99.90;;;;;;5063765;28;20251;-49
2022/12/06 07:00:31;;;;;;;3.17;2.87;;;0.70;99.90;;;;;;5071988;28;20705;-49
2022/12/06 07:02:58;;;;;;;5.83;3.63;;;0.60;99.90;;;;;;5069324;28;20232;-48
2022/12/06 07:05:26;;;;;;;2.63;2.20;;;0.70;99.90;;;;;;5067871;28;20202;-48
2022/12/06 07:07:56;;;;;;;2.30;1.90;;;0.70;99.90;;;;;;5068916;28;20223;-49
2022/12/06 07:10:24;;;;;;;3.03;2.20;;;0.70;99.90;;;;;;5062313;28;20201;-49
2022/12/06 07:12:52;;;;;;;2.37;2.17;;;0.70;99.90;;;;;;5066454;28;20208;-49
2022/12/06 07:15:20;;;;;;;3.83;2.08;;;0.80;99.90;;;;;;5065235;28;20453;-50
2022/12/06 07:17:47;;;;;;;3.07;2.77;;;0.90;99.90;;;;;;5069079;28;20232;-49
2022/12/06 07:20:14;;;;;;;2.77;2.57;;;0.90;99.90;;;;;;5070249;28;20250;-49
2022/12/06 07:22:41;;;;;;;3.97;2.83;;;1.00;99.90;;;;;;5066659;28;20206;-50
2022/12/06 07:25:10;;;;;;;1.90;1.80;;;1.00;99.90;;;;;;5068154;28;20264;-49
2022/12/06 07:27:37;;;;;;;2.23;2.00;;;1.00;99.90;;;;;;5070836;28;20234;-49
2022/12/06 07:30:05;;;;;;;3.73;1.90;;;1.00;99.90;;;;;;5063615;28;20193;-49
2022/12/06 07:32:35;;;;;;;3.57;2.40;;;1.00;99.90;;;;;;5065056;28;20208;-49
2022/12/06 07:35:03;;;;;;;1.53;1.50;;;1.00;99.90;;;;;;5058262;28;20227;-48
2022/12/06 07:37:30;;;;;;;2.30;2.20;;;1.00;99.90;;;;;;5074598;28;20728;-49
2022/12/06 07:39:57;;;;;;;2.20;1.93;;;0.90;99.90;;;;;;5075292;28;20225;-49
2022/12/06 07:45:13;;;;;;;2.00;1.57;;;0.90;99.90;;;;;;5074625;28;20209;-48
2022/12/06 07:47:41;;;;;;;1.23;1.03;;;0.90;99.90;;;;;;5075219;28;20668;-51
2022/12/06 07:50:10;;;;;;;1.43;1.30;;;0.90;99.90;;;;;;5073724;28;20199;-49
2022/12/06 07:52:38;;;;;;;4.50;2.80;;;1.00;99.90;;;;;;5071249;28;20245;-50
2022/12/06 07:55:07;;;;;;;1.47;0.90;;;1.00;99.90;;;;;;5074311;28;20212;-49
2022/12/06 07:57:35;;;;;;;1.50;1.40;;;1.10;99.90;;;;;;5075217;28;20218;-49
2022/12/06 08:00:03;;;;;;;1.03;0.93;;;1.10;99.90;;;;;;5072787;28;20222;-49
2022/12/06 08:02:30;;;;;;;1.97;0.80;;;1.10;99.90;;;;;;5067758;28;20623;-49
2022/12/06 08:04:57;;;;;;;2.97;0.97;;;1.30;99.90;;;;;;5064423;28;20210;-48
2022/12/06 08:07:25;;;;;;;1.43;1.13;;;1.30;99.90;;;;;;5069643;28;20309;-49
2022/12/06 08:09:53;;;;;;;1.07;0.90;;;1.40;99.90;;;;;;5074585;28;20207;-48
2022/12/06 08:12:20;;;;;;;1.23;1.00;;;1.40;99.90;;;;;;5074136;28;20235;-50
2022/12/06 08:18:13;;;;;;;2.53;1.57;;;1.50;99.90;;;;;;5065036;28;20286;-50
2022/12/06 08:20:40;;;;;;;1.17;1.17;;;1.70;99.90;;;;;;5071783;28;20224;-50
2022/12/06 08:23:07;;;;;;;1.30;1.00;;;1.70;99.90;;;;;;5064325;28;20207;-49
2022/12/06 08:25:34;;;;;;;2.17;1.00;;;1.90;99.90;;;;;;5071819;28;20210;-49
2022/12/06 08:28:02;;;;;;;1.97;1.50;;;2.10;99.90;;;;;;5066237;28;20238;-49
2022/12/06 08:30:29;;;;;;;1.57;0.90;;;2.30;99.90;;;;;;5073846;28;20191;-48
2022/12/06 08:32:56;;;;;;;0.60;0.60;;;2.60;99.90;;;;;;5070810;28;20346;-49
2022/12/06 08:35:24;;;;;;;2.83;1.10;;;2.90;99.90;;;;;;5073697;28;20244;-48
2022/12/06 08:37:51;;;;;;;12.17;1.20;;;3.10;99.90;;;;;;5073906;28;21108;-49
2022/12/06 08:40:18;;;;;;;1.87;1.13;;;3.40;99.90;;;;;;5074095;28;20633;-49
2022/12/06 08:42:46;;;;;;;1.23;0.70;;;3.50;99.90;;;;;;5064874;28;20249;-49
2022/12/06 08:45:13;;;;;;;2.77;0.60;;;3.50;99.90;;;;;;5064189;28;20210;-49
2022/12/06 08:47:40;;;;;;;1.50;0.60;;;3.60;99.90;;;;;;5074243;28;20244;-48
2022/12/06 08:50:08;;;;;;;1.53;0.73;;;3.80;99.90;;;;;;5073980;28;20281;-50
2022/12/06 08:52:36;;;;;;;2.20;1.37;;;3.90;99.90;;;;;;5064793;28;20731;-49
2022/12/06 08:55:03;;;;;;;3.03;0.57;;;3.80;99.90;;;;;;5065501;28;20198;-49
2022/12/06 08:57:32;;;;;;;0.73;0.73;;;3.90;99.90;;;;;;5074130;28;20249;-50
2022/12/06 08:59:59;;;;;;;2.97;0.73;;;4.00;99.90;;;;;;5072887;28;20207;-50
2022/12/06 09:02:26;;;;;;;0.70;0.70;;;4.10;99.90;;;;;;5065768;28;20218;-49
2022/12/06 09:04:53;;;;;;;5.33;0.80;;;4.20;99.90;;;;;;5071754;28;20201;-50
2022/12/06 09:07:21;;;;;;;2.40;0.43;;;4.40;99.90;;;;;;5073530;28;20288;-49
2022/12/06 09:09:50;;;;;;;1.20;0.57;;;4.50;99.90;;;;;;5073708;28;20208;-49
2022/12/06 09:12:17;;;;;;;1.77;0.50;;;4.70;99.90;;;;;;5071801;28;20204;-49
2022/12/06 09:14:44;;;;;;;1.43;0.90;;;4.80;99.90;;;;;;5063888;28;20202;-49
2022/12/06 09:17:11;;;;;;;1.20;1.10;;;5.20;99.90;;;;;;5073764;28;20224;-50
2022/12/06 09:19:38;;;;;;;1.10;1.10;;;5.50;99.90;;;;;;5073511;28;20229;-50
2022/12/06 09:22:05;;;;;;;1.40;1.17;;;5.50;99.90;;;;;;5068510;28;20215;-49
2022/12/06 09:24:32;;;;;;;1.17;1.07;;;5.60;99.90;;;;;;5068584;28;20260;-49
2022/12/06 09:27:00;;;;;;;1.50;1.10;;;5.70;99.90;;;;;;5073229;28;20236;-49
2022/12/06 09:29:27;;;;;;;3.60;1.37;;;5.80;99.90;;;;;;5071092;28;20631;-49
2022/12/06 09:31:54;;;;;;;1.33;0.97;;;5.70;99.90;;;;;;5059732;28;20253;-49
2022/12/06 09:34:21;;;;;;;1.83;1.73;;;5.70;99.90;;;;;;5072606;28;20199;-50
2022/12/06 09:36:52;;;;;;;2.23;1.47;;;5.80;99.90;;;;;;5073122;28;20676;-50
2022/12/06 09:39:23;;;;;;;1.20;1.07;;;5.70;99.90;;;;;;5066242;28;20260;-49
2022/12/06 09:42:11;;;;;;;2.57;1.23;;;5.70;99.90;;;;;;5069494;28;20209;-50
2022/12/06 09:45:01;;;;;;;2.80;1.10;;;5.40;99.90;;;;;;5072393;28;20200;-49
2022/12/06 09:47:42;;;;;;;1.67;1.57;;;5.50;99.90;;;;;;5072922;28;20269;-49
2022/12/06 09:50:21;;;;;;;1.10;1.10;;;5.70;99.90;;;;;;5069528;28;20202;-50
2022/12/06 09:53:08;;;;;;;3.40;1.30;;;5.80;99.90;;;;;;5071090;28;20266;-49
2022/12/06 09:55:47;;;;;;;1.60;1.37;;;5.90;99.90;;;;;;5070381;28;20221;-50
2022/12/06 09:58:24;;;;;;;2.43;1.30;;;6.10;99.90;;;;;;5059267;28;20270;-50
2022/12/06 10:01:02;;;;;;;2.47;0.90;;;6.10;99.90;;;;;;5072223;28;20227;-51
2022/12/06 10:03:47;;;;;;;1.13;1.13;;;6.60;99.90;;;;;;5072128;28;20618;-49
2022/12/06 10:06:18;;;;;;;3.57;1.07;;;7.20;99.90;;;;;;5070906;28;20205;-48
2022/12/06 10:09:06;;;;;;;1.07;0.60;;;7.60;99.90;;;;;;5070420;28;20232;-49
2022/12/06 10:11:55;;;;;;;0.67;0.67;;;8.00;99.90;;;;;;5068769;28;20201;-49
2022/12/06 10:14:44;;;;;;;2.10;0.80;;;8.20;99.90;;;;;;5071416;28;20868;-49
2022/12/06 10:17:22;;;;;;;0.97;0.73;;;8.40;99.90;;;;;;5054448;28;20282;-48
2022/12/06 10:20:01;;;;;;;0.50;0.50;;;8.60;99.90;;;;;;5071011;28;20738;-49
2022/12/06 10:22:38;;;;;;;6.27;1.50;;;8.70;99.90;;;;;;5072176;28;20218;-49
2022/12/06 10:25:12;;;;;;;0.70;0.70;;;8.60;99.90;;;;;;5071447;28;20203;-49
2022/12/06 10:27:52;;;;;;;2.13;0.60;;;8.60;99.90;;;;;;5071909;28;20229;-50
2022/12/06 10:30:21;;;;;;;2.83;0.90;;;8.20;99.90;;;;;;5064816;28;20201;-49
2022/12/06 10:32:53;;;;;;;1.50;0.80;;;8.00;99.90;;;;;;5069092;28;20290;-49
2022/12/06 10:35:37;;;;;;;0.70;0.53;;;7.70;99.90;;;;;;5071222;28;20248;-51
2022/12/06 10:38:22;;;;;;;0.50;0.50;;;7.30;99.90;;;;;;5069724;28;20266;-48
2022/12/06 10:40:59;;;;;;;2.73;0.80;;;7.20;99.90;;;;;;5069828;28;20222;-50
2022/12/06 10:43:32;;;;;;;2.30;1.83;;;7.00;99.90;;;;;;5071116;28;20264;-49
2022/12/06 10:49:00;;;;;;;0.70;0.70;;;6.90;99.90;;;;;;5074062;28;20229;-50
2022/12/06 10:51:34;;;;;;;0.50;0.50;;;6.90;99.90;;;;;;5063373;28;20228;-49
2022/12/06 10:54:12;;;;;;;0.70;0.40;;;6.80;99.90;;;;;;5051016;28;20204;-49
2022/12/06 10:56:41;;;;;;;2.90;0.50;;;6.70;99.90;;;;;;5051930;28;20203;-49
2022/12/06 10:59:20;;;;;;;1.13;0.57;;;6.60;99.90;;;;;;5055291;28;20297;-49
2022/12/06 11:01:51;;;;;;;0.40;0.40;;;6.60;99.90;;;;;;5063177;28;20676;-50
2022/12/06 11:04:25;;;;;;;0.97;0.80;;;6.60;99.90;;;;;;5069065;28;20248;-50
2022/12/06 11:06:55;;;;;;;3.80;0.93;;;6.60;99.90;;;;;;5070968;28;20284;-49
2022/12/06 11:09:43;;;;;;;0.57;0.50;;;6.60;99.90;;;;;;5070649;28;20211;-48
2022/12/06 11:12:22;;;;;;;0.80;0.80;;;6.60;99.90;;;;;;5064369;28;20195;-48
2022/12/06 11:14:53;;;;;;;1.00;0.63;;;6.70;99.90;;;;;;5070733;28;20259;-50
2022/12/06 11:17:26;;;;;;;1.93;0.60;;;6.80;99.90;;;;;;5071337;28;20231;-50
2022/12/06 11:20:00;;;;;;;1.33;0.50;;;6.70;99.90;;;;;;5070237;28;20203;-51
2022/12/06 11:22:37;;;;;;;0.40;0.40;;;6.80;99.90;;;;;;5069257;28;20248;-50
2022/12/06 11:25:14;;;;;;;0.67;0.53;;;7.00;99.90;;;;;;5051107;28;20201;-49
2022/12/06 11:27:48;;;;;;;1.23;0.40;;;7.10;99.90;;;;;;5070432;28;20260;-49
2022/12/06 11:30:17;;;;;;;0.47;0.47;;;7.10;99.90;;;;;;5067510;28;20266;-49
2022/12/06 11:32:48;;;;;;;0.43;0.43;;;7.10;99.90;;;;;;5071046;28;20226;-50
2022/12/06 11:35:19;;;;;;;0.70;0.60;;;7.10;99.90;;;;;;5068194;28;20201;-49
2022/12/06 11:37:46;;;;;;;4.90;1.00;;;7.20;99.90;;;;;;5070637;28;20223;-50
2022/12/06 11:40:25;;;;;;;1.67;1.40;;;7.00;99.90;;;;;;5067984;28;20248;-49
2022/12/06 11:42:52;;;;;;;1.47;1.37;;;6.90;99.90;;;;;;5069776;28;20277;-49
2022/12/06 11:45:24;;;;;;;2.33;1.70;;;6.80;99.90;;;;;;5070675;28;20210;-50
2022/12/06 11:47:55;;;;;;;4.63;4.23;;;6.80;99.90;;;;;;5070955;28;20647;-49
2022/12/06 11:50:24;;;;;;;6.57;5.70;;;6.80;99.90;;;;;;5062931;28;20210;-49
2022/12/06 11:52:58;;;;;;;8.73;7.63;;;6.80;99.90;;;;;;5071033;28;20289;-49
2022/12/06 11:55:28;;;;;;;13.07;9.67;;;6.80;99.90;;;;;;5070980;28;20218;-49
2022/12/06 11:58:01;;;;;;;12.47;10.70;;;6.70;99.90;;;;;;5071020;28;20245;-50
2022/12/06 12:00:28;;;;;;;12.80;9.77;;;6.80;99.90;;;;;;5070199;28;20572;-50
2022/12/06 12:02:57;;;;;;;13.20;9.40;;;6.70;99.90;;;;;;5071022;28;20226;-51
2022/12/06 12:05:29;;;;;;;13.83;10.53;;;6.60;99.90;;;;;;5069168;28;20664;-49
2022/12/06 12:07:59;;;;;;;14.57;11.07;;;6.60;99.90;;;;;;5071098;28;20227;-48
2022/12/06 12:10:33;;;;;;;12.77;10.27;;;6.50;99.90;;;;;;5061623;28;20293;-48
2022/12/06 12:16:13;;;;;;;12.60;9.93;;;6.60;99.90;;;;;;5051057;28;20213;-49
2022/12/06 12:18:50;;;;;;;12.20;9.83;;;6.60;99.90;;;;;;5065526;28;20231;-49
2022/12/06 12:21:27;;;;;;;11.37;9.23;;;6.50;99.90;;;;;;5074647;28;20253;-50
2022/12/06 12:23:55;;;;;;;10.93;9.17;;;6.50;99.90;;;;;;5073825;28;20195;-50
2022/12/06 12:26:23;;;;;;;11.90;10.13;;;6.50;99.90;;;;;;5073690;28;20438;-50
2022/12/06 12:29:04;;;;;;;11.87;9.27;;;6.60;99.90;;;;;;5070901;28;20325;-50
2022/12/06 12:31:31;;;;;;;11.87;9.23;;;6.50;99.90;;;;;;5070450;28;20227;-50
2022/12/06 12:34:18;;;;;;;13.93;10.13;;;6.30;99.90;;;;;;5071889;28;20208;-50
2022/12/06 12:36:49;;;;;;;11.50;8.97;;;6.40;99.90;;;;;;5072016;28;20560;-50
2022/12/06 12:39:26;;;;;;;15.53;9.93;;;6.40;99.90;;;;;;5073147;28;20210;-49
2022/12/06 12:41:53;;;;;;;10.93;8.73;;;6.50;99.90;;;;;;5072277;28;20319;-49
2022/12/06 12:44:25;;;;;;;12.50;9.57;;;6.50;99.90;;;;;;5067949;28;20572;-50
2022/12/06 12:46:56;;;;;;;13.77;10.07;;;6.60;99.90;;;;;;5073171;28;20331;-49
2022/12/06 12:49:28;;;;;;;11.93;9.00;;;6.50;99.90;;;;;;5073985;28;20219;-48
2022/12/06 12:51:56;;;;;;;16.60;10.33;;;6.50;99.90;;;;;;5074034;28;20772;-50
2022/12/06 12:54:27;;;;;;;14.07;10.27;;;6.30;99.90;;;;;;5074741;28;20195;-48
2022/12/06 12:56:55;;;;;;;11.97;10.37;;;6.10;99.90;;;;;;5063127;28;20208;-49
2022/12/06 12:59:24;;;;;;;13.13;10.67;;;6.10;99.90;;;;;;5074045;28;20199;-50
2022/12/06 13:01:55;;;;;;;13.83;10.47;;;6.00;99.90;;;;;;5073864;28;20222;-48
2022/12/06 13:04:41;;;;;;;13.07;10.30;;;6.00;99.90;;;;;;5071320;28;20211;-48
2022/12/06 13:07:15;;;;;;;17.43;10.50;;;6.00;99.90;;;;;;5065219;28;20300;-49
2022/12/06 13:09:51;;;;;;;15.23;10.77;;;5.90;99.90;;;;;;5073695;28;20236;-49
2022/12/06 13:12:24;;;;;;;13.40;10.10;;;5.80;99.90;;;;;;5073637;28;20202;-49
2022/12/06 13:14:54;;;;;;;14.20;10.97;;;5.80;99.90;;;;;;5072128;28;20205;-49
2022/12/06 13:17:25;;;;;;;13.97;11.30;;;5.70;99.90;;;;;;5065016;28;20230;-49
2022/12/06 13:19:54;;;;;;;17.27;10.93;;;5.80;99.90;;;;;;5072443;28;20194;-49
2022/12/06 13:22:26;;;;;;;15.80;10.77;;;5.80;99.90;;;;;;5073378;28;20226;-49
2022/12/06 13:25:00;;;;;;;13.83;10.70;;;5.80;99.90;;;;;;5071820;28;20305;-48
2022/12/06 13:27:31;;;;;;;10.90;9.23;;;5.70;99.90;;;;;;5065122;28;20664;-50
2022/12/06 13:30:02;;;;;;;16.73;11.43;;;5.60;99.90;;;;;;5072603;28;20728;-49
2022/12/06 13:32:36;;;;;;;16.00;11.97;;;5.50;99.90;;;;;;5073318;28;20249;-49
2022/12/06 13:35:08;;;;;;;15.20;12.70;;;5.40;99.90;;;;;;5071525;28;20258;-50
2022/12/06 13:37:42;;;;;;;18.57;12.70;;;5.40;99.90;;;;;;5065099;28;20725;-49